createdAt,value
2019-05-10T00:00:17.014Z,7.20
2019-05-10T00:03:04.774Z,7.63
2019-05-10T00:05:52.628Z,9.60
2019-05-10T00:08:40.566Z,10.33
2019-05-10T00:11:11.995Z,8.03
2019-05-10T00:13:44.548Z,7.07
2019-05-10T00:16:14.442Z,7.55
2019-05-10T00:18:44.179Z,7.03
2019-05-10T00:21:14.410Z,9.03
2019-05-10T00:23:44.077Z,5.90
2019-05-10T00:26:13.955Z,9.00
2019-05-10T00:28:43.792Z,6.37
2019-05-10T00:31:14.005Z,9.03
2019-05-10T00:33:43.917Z,7.63
2019-05-10T00:36:13.473Z,6.70
2019-05-10T00:38:43.049Z,7.30
2019-05-10T00:41:12.594Z,8.57
2019-05-10T00:43:42.182Z,10.17
2019-05-10T00:46:12.785Z,5.93
2019-05-10T00:48:42.362Z,9.60
2019-05-10T00:51:11.910Z,6.40
2019-05-10T00:53:41.550Z,9.60
2019-05-10T00:56:11.103Z,10.37
2019-05-10T00:58:40.677Z,8.10
2019-05-10T01:01:10.560Z,8.77
2019-05-10T01:03:40.219Z,6.23
2019-05-10T01:06:09.844Z,5.77
2019-05-10T01:08:39.564Z,7.73
2019-05-10T01:11:09.184Z,8.43
2019-05-10T01:13:38.759Z,5.07
2019-05-10T01:16:08.332Z,7.97
2019-05-10T01:18:38.059Z,8.23
2019-05-10T01:21:07.701Z,7.90
2019-05-10T01:23:37.329Z,5.53
2019-05-10T01:26:06.897Z,6.77
2019-05-10T01:28:36.449Z,7.15
2019-05-10T01:31:06.018Z,4.43
2019-05-10T01:33:35.641Z,7.80
2019-05-10T01:36:05.422Z,9.77
2019-05-10T01:38:34.970Z,7.72
2019-05-10T01:41:04.824Z,6.17
2019-05-10T01:43:34.447Z,8.30
2019-05-10T01:46:04.265Z,7.07
2019-05-10T01:48:33.995Z,5.40
2019-05-10T01:51:03.666Z,7.20
2019-05-10T01:53:33.393Z,8.53
2019-05-10T01:56:02.964Z,7.67
2019-05-10T01:58:32.699Z,5.72
2019-05-10T02:01:02.459Z,7.57
2019-05-10T02:03:32.081Z,9.55
2019-05-10T02:06:02.060Z,4.97
2019-05-10T02:08:32.050Z,8.83
2019-05-10T02:11:01.851Z,5.33
2019-05-10T02:13:31.464Z,5.72
2019-05-10T02:16:01.014Z,5.87
2019-05-10T02:18:30.631Z,6.85
2019-05-10T02:21:00.214Z,7.77
2019-05-10T02:23:29.772Z,7.70
2019-05-10T02:26:09.022Z,9.27
2019-05-10T02:28:30.757Z,7.47
2019-05-10T02:31:00.324Z,9.03
2019-05-10T02:33:29.865Z,6.95
2019-05-10T02:35:59.618Z,5.80
2019-05-10T02:38:29.142Z,6.55
2019-05-10T02:40:58.767Z,8.23
2019-05-10T02:43:28.392Z,7.28
2019-05-10T02:45:57.955Z,6.03
2019-05-10T02:48:27.574Z,6.60
2019-05-10T02:50:57.207Z,8.43
2019-05-10T02:53:26.889Z,6.83
2019-05-10T02:55:57.345Z,9.98
2019-05-10T02:58:27.144Z,5.40
2019-05-10T03:00:59.782Z,7.07
2019-05-10T03:03:32.165Z,6.37
2019-05-10T03:06:05.295Z,9.70
2019-05-10T03:08:49.465Z,6.77
2019-05-10T03:11:20.472Z,7.10
2019-05-10T03:13:52.228Z,12.00
2019-05-10T03:16:24.601Z,6.50
2019-05-10T03:18:54.221Z,9.20
2019-05-10T03:21:24.425Z,7.57
2019-05-10T03:23:54.148Z,13.83
2019-05-10T03:26:23.726Z,7.40
2019-05-10T03:28:53.553Z,6.08
2019-05-10T03:31:23.201Z,7.10
2019-05-10T03:33:56.390Z,9.80
2019-05-10T03:36:24.190Z,11.75
2019-05-10T03:38:54.255Z,12.80
2019-05-10T03:41:24.562Z,11.03
2019-05-10T03:43:54.102Z,12.03
2019-05-10T03:46:23.669Z,8.15
2019-05-10T03:48:53.245Z,14.80
2019-05-10T03:51:22.800Z,8.57
2019-05-10T03:53:52.382Z,12.47
2019-05-10T03:56:22.115Z,15.20
2019-05-10T03:58:51.706Z,14.77
2019-05-10T04:01:21.525Z,11.63
2019-05-10T04:03:51.089Z,10.93
2019-05-10T04:06:20.938Z,12.73
2019-05-10T04:08:50.674Z,12.88
2019-05-10T04:11:20.254Z,12.00
2019-05-10T04:13:49.822Z,12.67
2019-05-10T04:16:19.589Z,12.37
2019-05-10T04:18:49.165Z,10.33
2019-05-10T04:21:19.660Z,10.23
2019-05-10T04:23:49.213Z,13.63
2019-05-10T04:26:19.681Z,14.07
2019-05-10T04:28:49.238Z,14.33
2019-05-10T04:31:19.724Z,12.70
2019-05-10T04:33:49.312Z,10.70
2019-05-10T04:36:19.633Z,9.80
2019-05-10T04:38:49.264Z,10.73
2019-05-10T04:41:19.690Z,14.60
2019-05-10T04:43:49.313Z,13.40
2019-05-10T04:46:19.708Z,14.43
2019-05-10T04:48:49.342Z,12.83
2019-05-10T04:51:19.723Z,14.50
2019-05-10T04:53:49.496Z,15.93
2019-05-10T04:56:19.645Z,13.10
2019-05-10T04:58:49.395Z,13.23
2019-05-10T05:01:20.670Z,13.60
2019-05-10T05:03:50.251Z,13.93
2019-05-10T05:06:19.848Z,15.40
2019-05-10T05:08:49.430Z,10.83
2019-05-10T05:11:19.821Z,12.97
2019-05-10T05:13:49.341Z,15.40
2019-05-10T05:16:19.721Z,10.03
2019-05-10T05:18:49.398Z,10.30
2019-05-10T05:21:19.758Z,12.57
2019-05-10T05:23:49.335Z,13.10
2019-05-10T05:26:19.750Z,11.90
2019-05-10T05:28:49.375Z,14.33
2019-05-10T05:31:19.805Z,13.23
2019-05-10T05:33:49.364Z,12.57
2019-05-10T05:36:19.804Z,16.60
2019-05-10T05:38:49.672Z,14.20
2019-05-10T05:41:19.744Z,12.40
2019-05-10T05:43:49.386Z,11.20
2019-05-10T05:46:19.773Z,12.50
2019-05-10T05:48:51.406Z,12.77
2019-05-10T05:51:20.654Z,16.47
2019-05-10T05:53:50.332Z,13.00
2019-05-10T05:56:19.912Z,14.67
2019-05-10T05:58:49.515Z,17.00
2019-05-10T06:01:26.156Z,16.17
2019-05-10T06:03:51.059Z,11.73
2019-05-10T06:06:22.137Z,10.73
2019-05-10T06:08:54.474Z,13.93
2019-05-10T06:11:23.171Z,14.27
2019-05-10T06:13:52.781Z,12.47
2019-05-10T06:16:22.469Z,12.63
2019-05-10T06:18:52.073Z,13.63
2019-05-10T06:21:24.517Z,11.68
2019-05-10T06:23:53.086Z,11.77
2019-05-10T06:26:28.402Z,15.88
2019-05-10T06:29:01.443Z,10.30
2019-05-10T06:31:25.638Z,13.60
2019-05-10T06:33:55.294Z,13.77
2019-05-10T06:36:24.902Z,12.82
2019-05-10T06:38:54.488Z,16.37
2019-05-10T06:41:24.068Z,10.95
2019-05-10T06:43:54.141Z,10.90
2019-05-10T06:46:29.248Z,16.67
2019-05-10T06:48:54.975Z,12.53
2019-05-10T06:51:24.622Z,13.13
2019-05-10T06:53:54.201Z,12.17
2019-05-10T06:56:23.797Z,15.13
2019-05-10T06:58:53.411Z,12.13
2019-05-10T07:01:23.062Z,13.60
2019-05-10T07:03:52.692Z,15.13
2019-05-10T07:06:22.271Z,15.53
2019-05-10T07:08:57.792Z,12.57
2019-05-10T07:11:23.145Z,13.17
2019-05-10T07:13:53.168Z,13.10
2019-05-10T07:16:25.572Z,11.57
2019-05-10T07:18:54.933Z,15.10
2019-05-10T07:21:25.602Z,11.80
2019-05-10T07:23:55.287Z,10.77
2019-05-10T07:26:26.710Z,12.63
2019-05-10T07:28:57.645Z,13.33
2019-05-10T07:31:27.486Z,11.10
2019-05-10T07:33:57.082Z,12.23
2019-05-10T07:36:29.716Z,14.33
2019-05-10T07:39:02.735Z,14.03
2019-05-10T07:41:29.258Z,14.35
2019-05-10T07:44:00.470Z,15.33
2019-05-10T07:46:30.115Z,13.93
2019-05-10T07:48:59.701Z,16.60
2019-05-10T07:51:30.337Z,15.70
2019-05-10T07:54:04.651Z,14.67
2019-05-10T07:56:31.383Z,16.80
2019-05-10T07:59:01.324Z,13.37
2019-05-10T08:01:32.859Z,14.63
2019-05-10T08:04:02.460Z,15.60
2019-05-10T08:06:43.739Z,16.73
2019-05-10T08:09:07.120Z,13.77
2019-05-10T08:11:36.012Z,18.73
2019-05-10T08:14:06.647Z,17.80
2019-05-10T08:16:38.781Z,15.90
2019-05-10T08:19:08.581Z,14.83
2019-05-10T08:21:38.233Z,17.63
2019-05-10T08:24:13.718Z,13.57
2019-05-10T08:26:39.366Z,14.00
2019-05-10T08:29:13.634Z,14.93
2019-05-10T08:31:50.409Z,14.23
2019-05-10T08:34:12.189Z,15.13
2019-05-10T08:36:43.440Z,17.27
2019-05-10T08:39:13.972Z,15.27
2019-05-10T08:41:45.859Z,13.80
2019-05-10T08:44:19.764Z,18.63
2019-05-10T08:46:47.289Z,16.90
2019-05-10T08:49:22.127Z,17.77
2019-05-10T08:51:49.480Z,13.53
2019-05-10T08:54:22.151Z,14.77
2019-05-10T08:56:53.010Z,14.73
2019-05-10T08:59:26.472Z,19.00
2019-05-10T09:01:53.919Z,14.98
2019-05-10T09:04:24.363Z,15.05
2019-05-10T09:06:59.514Z,13.73
2019-05-10T09:09:25.598Z,13.58
2019-05-10T09:11:57.702Z,13.67
2019-05-10T09:14:26.467Z,13.32
2019-05-10T09:17:01.786Z,17.27
2019-05-10T09:19:35.999Z,11.75
2019-05-10T09:21:58.591Z,12.67
2019-05-10T09:24:28.247Z,13.00
2019-05-10T09:26:57.811Z,15.60
2019-05-10T09:29:32.167Z,13.27
2019-05-10T09:32:01.139Z,11.13
2019-05-10T09:34:32.271Z,10.30
2019-05-10T09:37:02.955Z,8.73
2019-05-10T09:39:33.078Z,10.83
2019-05-10T09:42:07.735Z,9.17
2019-05-10T09:44:34.053Z,11.40
2019-05-10T09:47:04.062Z,6.73
2019-05-10T09:49:33.965Z,7.70
2019-05-10T09:52:12.041Z,9.03
2019-05-10T09:54:37.935Z,9.47
2019-05-10T09:57:08.243Z,13.40
2019-05-10T09:59:37.968Z,11.03
2019-05-10T10:02:14.513Z,11.70
2019-05-10T10:04:38.895Z,10.10
2019-05-10T10:07:08.531Z,11.93
2019-05-10T10:09:44.484Z,9.87
2019-05-10T10:12:09.433Z,7.30
2019-05-10T10:14:43.164Z,8.63
2019-05-10T10:17:10.307Z,12.33
2019-05-10T10:19:40.715Z,9.40
2019-05-10T10:22:11.278Z,11.07
2019-05-10T10:24:41.919Z,11.53
2019-05-10T10:27:11.476Z,9.40
2019-05-10T10:29:41.070Z,8.17
2019-05-10T10:32:10.704Z,11.37
2019-05-10T10:34:42.986Z,7.67
2019-05-10T10:37:14.825Z,12.83
2019-05-10T10:39:42.830Z,6.97
2019-05-10T10:42:13.324Z,6.47
2019-05-10T10:44:43.033Z,5.90
2019-05-10T10:47:12.605Z,6.27
2019-05-10T10:49:42.188Z,6.13
2019-05-10T10:52:13.567Z,4.15
2019-05-10T10:54:43.378Z,3.50
2019-05-10T10:57:12.959Z,3.90
2019-05-10T10:59:42.596Z,2.57
2019-05-10T11:02:33.322Z,3.83
2019-05-10T11:04:46.594Z,3.87
2019-05-10T11:07:15.069Z,5.73
2019-05-10T11:09:45.021Z,4.47
2019-05-10T11:12:19.548Z,8.10
2019-05-10T11:14:45.910Z,7.07
2019-05-10T11:17:15.568Z,4.50
2019-05-10T11:19:45.166Z,7.17
2019-05-10T11:22:14.733Z,3.40
2019-05-10T11:24:44.317Z,3.43
2019-05-10T11:27:17.117Z,3.30
2019-05-10T11:29:45.199Z,3.43
2019-05-10T11:32:16.918Z,3.13
2019-05-10T11:34:46.045Z,3.12
2019-05-10T11:37:18.278Z,3.43
2019-05-10T11:39:47.239Z,3.30
2019-05-10T11:42:16.906Z,2.93
2019-05-10T11:44:50.027Z,2.57
2019-05-10T11:47:23.993Z,2.43
2019-05-10T11:49:50.892Z,2.92
2019-05-10T11:52:21.733Z,3.93
2019-05-10T11:54:51.700Z,2.80
2019-05-10T11:57:21.906Z,2.30
2019-05-10T11:59:51.962Z,3.23
2019-05-10T12:02:37.947Z,3.07
2019-05-10T12:04:53.073Z,3.17
2019-05-10T12:07:27.372Z,2.40
2019-05-10T12:12:44.857Z,3.10
2019-05-10T12:14:57.197Z,4.45
2019-05-10T12:17:27.642Z,3.17
2019-05-10T12:19:57.206Z,4.80
2019-05-10T12:22:32.063Z,4.12
2019-05-10T12:25:20.632Z,4.20
2019-05-10T12:26:06.272Z,8.00
2019-05-10T12:27:44.353Z,5.17
2019-05-10T12:30:03.337Z,5.47
2019-05-10T12:32:37.030Z,4.60
2019-05-10T12:35:04.688Z,5.67
2019-05-10T12:37:34.344Z,5.45
2019-05-10T12:40:11.933Z,6.37
2019-05-10T12:42:38.156Z,7.25
2019-05-10T12:45:09.057Z,8.03
2019-05-10T12:47:41.279Z,5.83
2019-05-10T12:50:10.507Z,6.47
2019-05-10T12:52:42.975Z,6.43
2019-05-10T12:55:11.698Z,6.83
2019-05-10T12:57:43.319Z,6.20
2019-05-10T13:00:15.710Z,6.47
2019-05-10T13:02:50.876Z,7.57
2019-05-10T13:05:16.258Z,5.80
2019-05-10T13:07:45.987Z,7.70
2019-05-10T13:10:15.987Z,6.07
2019-05-10T13:12:47.429Z,5.50
2019-05-10T13:15:17.280Z,6.67
2019-05-10T13:17:50.584Z,6.40
2019-05-10T13:20:18.697Z,5.67
2019-05-10T13:22:48.385Z,6.07
2019-05-10T13:25:18.198Z,5.17
2019-05-10T13:27:47.855Z,4.87
2019-05-10T13:30:27.132Z,9.67
2019-05-10T13:32:52.820Z,5.58
2019-05-10T13:35:20.391Z,5.67
2019-05-10T13:37:49.969Z,8.20
2019-05-10T13:40:20.541Z,5.70
2019-05-10T13:42:50.145Z,5.17
2019-05-10T13:45:20.346Z,14.30
2019-05-10T13:47:50.012Z,8.10
2019-05-10T13:50:20.456Z,6.40
2019-05-10T13:52:50.031Z,7.93
2019-05-10T13:55:20.336Z,6.67
2019-05-10T13:57:50.161Z,6.13
2019-05-10T14:00:21.900Z,6.55
2019-05-10T14:02:51.551Z,7.73
2019-05-10T14:05:21.107Z,6.27
2019-05-10T14:07:52.688Z,4.73
2019-05-10T14:10:23.508Z,6.93
2019-05-10T14:12:56.247Z,14.57
2019-05-10T14:15:24.980Z,8.40
2019-05-10T14:17:54.578Z,16.23
2019-05-10T14:20:27.588Z,11.57
2019-05-10T14:22:58.399Z,5.63
2019-05-10T14:25:29.362Z,5.60
2019-05-10T14:27:58.434Z,6.40
2019-05-10T14:30:27.984Z,5.85
2019-05-10T14:32:57.588Z,5.70
2019-05-10T14:35:27.279Z,11.05
2019-05-10T14:38:07.577Z,6.90
2019-05-10T14:40:30.679Z,6.63
2019-05-10T14:42:59.489Z,7.03
2019-05-10T14:45:29.067Z,5.73
2019-05-10T14:47:58.678Z,6.10
2019-05-10T14:50:28.626Z,5.58
2019-05-10T14:52:58.289Z,7.55
2019-05-10T14:55:34.583Z,9.30
2019-05-10T14:57:59.193Z,7.87
2019-05-10T15:00:29.190Z,7.87
2019-05-10T15:03:02.050Z,6.50
2019-05-10T15:05:30.268Z,7.93
2019-05-10T15:07:59.964Z,8.20
2019-05-10T15:10:32.985Z,7.20
2019-05-10T15:13:00.958Z,6.37
2019-05-10T15:15:31.092Z,7.80
2019-05-10T15:18:03.536Z,7.40
2019-05-10T15:20:35.798Z,5.92
2019-05-10T15:23:04.847Z,6.00
2019-05-10T15:25:34.431Z,10.50
2019-05-10T15:28:04.074Z,6.47
2019-05-10T15:30:39.438Z,6.80
2019-05-10T15:33:05.173Z,7.57
2019-05-10T15:35:34.831Z,6.20
2019-05-10T15:38:04.544Z,5.90
2019-05-10T15:40:38.619Z,8.40
2019-05-10T15:43:10.565Z,6.67
2019-05-10T15:45:36.918Z,6.43
2019-05-10T15:48:06.478Z,6.70
2019-05-10T15:50:38.624Z,9.03
2019-05-10T15:53:07.935Z,6.00
2019-05-10T15:55:37.771Z,7.83
2019-05-10T15:58:07.544Z,7.13
2019-05-10T16:00:39.106Z,10.80
2019-05-10T16:03:08.567Z,7.93
2019-05-10T16:05:43.489Z,8.27
2019-05-10T16:08:13.529Z,7.87
2019-05-10T16:10:41.827Z,7.70
2019-05-10T16:13:15.165Z,5.97
2019-05-10T16:15:43.129Z,7.50
2019-05-10T16:18:12.754Z,6.83
2019-05-10T16:20:42.743Z,7.23
2019-05-10T16:23:12.330Z,9.08
2019-05-10T16:25:47.911Z,7.10
2019-05-10T16:28:15.383Z,7.87
2019-05-10T16:30:47.071Z,8.77
2019-05-10T16:33:18.156Z,8.37
2019-05-10T16:35:51.906Z,11.30
2019-05-10T16:38:20.580Z,7.33
2019-05-10T16:40:58.545Z,8.07
2019-05-10T16:43:24.572Z,8.13
2019-05-10T16:45:53.094Z,5.97
2019-05-10T16:48:23.027Z,5.30
2019-05-10T16:50:52.609Z,7.27
2019-05-10T16:53:22.189Z,11.33
2019-05-10T16:55:51.810Z,6.43
2019-05-10T16:58:22.446Z,6.45
2019-05-10T17:00:52.102Z,6.43
2019-05-10T17:03:21.661Z,6.07
2019-05-10T17:05:53.807Z,4.80
2019-05-10T17:08:22.710Z,7.70
2019-05-10T17:10:52.305Z,5.53
2019-05-10T17:13:21.907Z,10.33
2019-05-10T17:15:51.489Z,5.33
2019-05-10T17:18:23.846Z,6.33
2019-05-10T17:20:52.584Z,7.70
2019-05-10T17:23:22.205Z,6.17
2019-05-10T17:25:51.799Z,4.90
2019-05-10T17:28:21.378Z,6.40
2019-05-10T17:30:50.962Z,4.70
2019-05-10T17:33:20.620Z,5.63
2019-05-10T17:35:50.288Z,5.97
2019-05-10T17:38:20.440Z,5.33
2019-05-10T17:40:50.571Z,6.97
2019-05-10T17:43:22.684Z,7.03
2019-05-10T17:45:51.864Z,6.73
2019-05-10T17:48:21.506Z,5.33
2019-05-10T17:50:51.196Z,5.77
2019-05-10T17:53:20.763Z,5.70
2019-05-10T17:55:55.596Z,10.85
2019-05-10T17:58:21.812Z,7.00
2019-05-10T18:00:51.396Z,9.30
2019-05-10T18:03:21.141Z,7.00
2019-05-10T18:05:53.326Z,8.07
2019-05-10T18:08:21.996Z,7.00
2019-05-10T18:10:57.119Z,8.10
2019-05-10T18:13:22.857Z,8.13
2019-05-10T18:15:52.581Z,7.33
2019-05-10T18:18:22.134Z,8.87
2019-05-10T18:20:51.743Z,7.63
2019-05-10T18:23:23.005Z,6.70
2019-05-10T18:25:58.483Z,6.83
2019-05-10T18:28:24.235Z,8.07
2019-05-10T18:30:53.898Z,7.77
2019-05-10T18:33:23.462Z,6.83
2019-05-10T18:35:54.689Z,8.63
2019-05-10T18:38:24.399Z,8.93
2019-05-10T18:40:53.992Z,7.10
2019-05-10T18:43:23.588Z,7.00
2019-05-10T18:45:53.193Z,7.87
2019-05-10T18:48:22.759Z,7.10
2019-05-10T18:50:52.338Z,7.50
2019-05-10T18:53:21.930Z,7.50
2019-05-10T18:55:51.521Z,8.15
2019-05-10T18:58:23.337Z,8.00
2019-05-10T19:00:55.991Z,8.57
2019-05-10T19:03:28.090Z,8.47
2019-05-10T19:05:55.116Z,8.90
2019-05-10T19:08:24.705Z,9.20
2019-05-10T19:10:54.360Z,9.03
2019-05-10T19:13:24.626Z,7.87
2019-05-10T19:15:58.220Z,9.00
2019-05-10T19:18:25.825Z,8.90
2019-05-10T19:20:55.466Z,10.48
2019-05-10T19:23:25.106Z,9.27
2019-05-10T19:25:54.692Z,9.43
2019-05-10T19:28:26.693Z,8.93
2019-05-10T19:30:58.876Z,10.38
2019-05-10T19:33:29.526Z,11.50
2019-05-10T19:35:58.154Z,11.87
2019-05-10T19:38:27.726Z,10.50
2019-05-10T19:40:57.756Z,12.23
2019-05-10T19:43:27.533Z,12.33
2019-05-10T19:45:58.076Z,12.03
2019-05-10T19:48:29.429Z,12.68
2019-05-10T19:51:03.044Z,10.80
2019-05-10T19:53:31.391Z,11.08
2019-05-10T19:56:03.993Z,11.00
2019-05-10T19:58:33.936Z,11.80
2019-05-10T20:01:03.734Z,14.20
2019-05-10T20:03:33.488Z,13.70
2019-05-10T20:06:03.064Z,12.37
2019-05-10T20:08:32.653Z,11.07
2019-05-10T20:11:02.243Z,13.63
2019-05-10T20:13:31.855Z,16.00
2019-05-10T20:16:01.708Z,13.00
2019-05-10T20:18:31.494Z,14.98
2019-05-10T20:21:01.064Z,15.67
2019-05-10T20:23:30.666Z,16.02
2019-05-10T20:26:00.272Z,15.83
2019-05-10T20:28:30.128Z,14.80
2019-05-10T20:30:59.656Z,15.37
2019-05-10T20:33:29.328Z,20.45
2019-05-10T20:35:58.908Z,18.23
2019-05-10T20:38:28.523Z,16.30
2019-05-10T20:40:58.095Z,17.67
2019-05-10T20:43:27.714Z,19.87
2019-05-10T20:45:57.649Z,16.10
2019-05-10T20:48:27.477Z,16.93
2019-05-10T20:50:57.066Z,17.97
2019-05-10T20:53:26.652Z,20.30
2019-05-10T20:55:56.317Z,19.70
2019-05-10T20:58:25.916Z,21.70
2019-05-10T21:00:55.513Z,21.27
2019-05-10T21:03:25.100Z,21.07
2019-05-10T21:05:54.707Z,23.17
2019-05-10T21:08:24.299Z,18.27
2019-05-10T21:10:53.892Z,19.20
2019-05-10T21:13:23.460Z,18.30
2019-05-10T21:15:53.120Z,18.63
2019-05-10T21:18:22.713Z,17.23
2019-05-10T21:20:52.317Z,18.93
2019-05-10T21:23:21.938Z,19.50
2019-05-10T21:25:51.535Z,18.23
2019-05-10T21:28:21.194Z,19.23
2019-05-10T21:30:53.394Z,20.40
2019-05-10T21:33:22.082Z,16.77
2019-05-10T21:35:51.779Z,17.32
2019-05-10T21:38:32.666Z,19.33
2019-05-10T21:40:52.752Z,18.00
2019-05-10T21:43:22.325Z,18.47
2019-05-10T21:45:51.911Z,18.60
2019-05-10T21:48:21.485Z,17.20
2019-05-10T21:50:51.091Z,15.97
2019-05-10T21:53:20.734Z,15.58
2019-05-10T21:55:50.331Z,16.53
2019-05-10T21:58:20.820Z,15.30
2019-05-10T22:00:52.413Z,15.53
2019-05-10T22:03:21.994Z,18.83
2019-05-10T22:05:51.577Z,22.70
2019-05-10T22:08:21.154Z,17.27
2019-05-10T22:10:50.954Z,16.93
2019-05-10T22:13:20.809Z,19.87
2019-05-10T22:15:50.407Z,21.03
2019-05-10T22:18:20.830Z,16.53
2019-05-10T22:20:50.418Z,16.20
2019-05-10T22:23:20.726Z,16.48
2019-05-10T22:25:50.348Z,15.70
2019-05-10T22:28:20.736Z,17.27
2019-05-10T22:30:50.411Z,16.13
2019-05-10T22:33:20.811Z,16.93
2019-05-10T22:35:50.438Z,18.13
2019-05-10T22:38:20.802Z,18.67
2019-05-10T22:40:50.404Z,20.20
2019-05-10T22:43:20.779Z,18.75
2019-05-10T22:45:50.390Z,19.87
2019-05-10T22:48:20.810Z,20.43
2019-05-10T22:50:50.464Z,20.87
2019-05-10T22:53:20.880Z,20.62
2019-05-10T22:55:50.500Z,18.10
2019-05-10T22:58:20.874Z,18.73
2019-05-10T23:00:50.470Z,18.10
2019-05-10T23:03:24.387Z,19.75
2019-05-10T23:05:52.083Z,17.80
2019-05-10T23:08:21.687Z,17.27
2019-05-10T23:10:51.329Z,15.53
2019-05-10T23:13:20.906Z,15.23
2019-05-10T23:15:50.502Z,15.77
2019-05-10T23:18:20.862Z,16.00
2019-05-10T23:20:50.449Z,15.60
2019-05-10T23:23:21.672Z,15.93
2019-05-10T23:25:52.968Z,15.00
2019-05-10T23:28:22.583Z,15.00
2019-05-10T23:30:52.174Z,14.73
2019-05-10T23:33:21.940Z,17.03
2019-05-10T23:35:51.544Z,13.70
2019-05-10T23:38:21.101Z,14.07
2019-05-10T23:40:50.700Z,12.93
2019-05-10T23:43:20.861Z,12.82
2019-05-10T23:45:50.470Z,12.80
2019-05-10T23:48:21.132Z,11.43
2019-05-10T23:50:50.718Z,11.70
2019-05-10T23:53:20.867Z,13.48
2019-05-10T23:55:50.473Z,12.80
2019-05-10T23:58:21.016Z,12.80
